sensor_id;sensor_type;location;lat;lon;timestamp;P1;durP1;ratioP1;P2;durP2;ratioP2
65863;SDS011;52639;51.180;20.460;2022-09-09T00:02:01;20.52;;;12.80;;
65863;SDS011;52639;51.180;20.460;2022-09-09T00:06:08;24.20;;;15.77;;
65863;SDS011;52639;51.180;20.460;2022-09-09T00:10:18;20.75;;;13.32;;
65863;SDS011;52639;51.180;20.460;2022-09-09T00:14:31;22.88;;;14.52;;
65863;SDS011;52639;51.180;20.460;2022-09-09T00:18:46;21.30;;;14.35;;
65863;SDS011;52639;51.180;20.460;2022-09-09T00:23:00;24.73;;;15.20;;
65863;SDS011;52639;51.180;20.460;2022-09-09T00:27:09;24.13;;;14.85;;
65863;SDS011;52639;51.180;20.460;2022-09-09T00:31:19;10.35;;;6.55;;
65863;SDS011;52639;51.180;20.460;2022-09-09T00:35:27;23.88;;;14.43;;
65863;SDS011;52639;51.180;20.460;2022-09-09T00:39:34;23.45;;;14.18;;
65863;SDS011;52639;51.180;20.460;2022-09-09T00:43:40;25.63;;;15.68;;
65863;SDS011;52639;51.180;20.460;2022-09-09T00:47:44;27.17;;;16.95;;
65863;SDS011;52639;51.180;20.460;2022-09-09T00:51:51;30.40;;;17.60;;
65863;SDS011;52639;51.180;20.460;2022-09-09T00:56:08;30.20;;;17.02;;
65863;SDS011;52639;51.180;20.460;2022-09-09T01:00:19;31.80;;;19.00;;
65863;SDS011;52639;51.180;20.460;2022-09-09T01:04:25;31.02;;;18.92;;
65863;SDS011;52639;51.180;20.460;2022-09-09T01:08:39;27.15;;;16.60;;
65863;SDS011;52639;51.180;20.460;2022-09-09T01:12:52;31.58;;;18.08;;
65863;SDS011;52639;51.180;20.460;2022-09-09T01:16:59;28.92;;;16.65;;
65863;SDS011;52639;51.180;20.460;2022-09-09T01:21:08;26.52;;;16.65;;
65863;SDS011;52639;51.180;20.460;2022-09-09T01:25:29;27.52;;;16.30;;
65863;SDS011;52639;51.180;20.460;2022-09-09T01:29:48;27.50;;;15.23;;
65863;SDS011;52639;51.180;20.460;2022-09-09T01:33:50;27.65;;;16.77;;
65863;SDS011;52639;51.180;20.460;2022-09-09T01:37:53;26.38;;;15.82;;
65863;SDS011;52639;51.180;20.460;2022-09-09T01:41:55;26.08;;;15.07;;
65863;SDS011;52639;51.180;20.460;2022-09-09T01:46:00;27.42;;;17.38;;
65863;SDS011;52639;51.180;20.460;2022-09-09T01:50:03;29.52;;;17.05;;
65863;SDS011;52639;51.180;20.460;2022-09-09T01:54:07;27.92;;;16.90;;
65863;SDS011;52639;51.180;20.460;2022-09-09T01:58:12;31.40;;;19.33;;
65863;SDS011;52639;51.180;20.460;2022-09-09T02:02:28;25.88;;;16.73;;
65863;SDS011;52639;51.180;20.460;2022-09-09T02:06:34;35.63;;;19.30;;
65863;SDS011;52639;51.180;20.460;2022-09-09T02:10:42;34.88;;;17.90;;
65863;SDS011;52639;51.180;20.460;2022-09-09T02:14:50;30.35;;;17.25;;
65863;SDS011;52639;51.180;20.460;2022-09-09T02:19:00;30.70;;;16.15;;
65863;SDS011;52639;51.180;20.460;2022-09-09T02:23:05;39.35;;;23.25;;
65863;SDS011;52639;51.180;20.460;2022-09-09T02:27:10;30.65;;;19.20;;
65863;SDS011;52639;51.180;20.460;2022-09-09T02:31:15;40.10;;;23.35;;
65863;SDS011;52639;51.180;20.460;2022-09-09T02:35:22;47.70;;;30.85;;
65863;SDS011;52639;51.180;20.460;2022-09-09T02:39:26;68.45;;;39.95;;
65863;SDS011;52639;51.180;20.460;2022-09-09T02:43:31;56.05;;;33.75;;
65863;SDS011;52639;51.180;20.460;2022-09-09T02:47:34;55.65;;;31.67;;
65863;SDS011;52639;51.180;20.460;2022-09-09T02:51:45;54.13;;;31.10;;
65863;SDS011;52639;51.180;20.460;2022-09-09T02:55:56;46.88;;;28.08;;
65863;SDS011;52639;51.180;20.460;2022-09-09T03:00:03;47.10;;;25.95;;
65863;SDS011;52639;51.180;20.460;2022-09-09T03:04:06;40.55;;;24.27;;
65863;SDS011;52639;51.180;20.460;2022-09-09T03:08:10;39.95;;;21.75;;
65863;SDS011;52639;51.180;20.460;2022-09-09T03:12:13;46.53;;;24.80;;
65863;SDS011;52639;51.180;20.460;2022-09-09T03:16:17;49.90;;;27.88;;
65863;SDS011;52639;51.180;20.460;2022-09-09T03:20:19;54.75;;;29.60;;
65863;SDS011;52639;51.180;20.460;2022-09-09T03:24:23;59.70;;;28.73;;
65863;SDS011;52639;51.180;20.460;2022-09-09T03:28:25;55.20;;;28.35;;
65863;SDS011;52639;51.180;20.460;2022-09-09T03:32:31;49.58;;;24.70;;
65863;SDS011;52639;51.180;20.460;2022-09-09T03:36:34;56.65;;;26.60;;
65863;SDS011;52639;51.180;20.460;2022-09-09T03:40:38;57.15;;;25.95;;
65863;SDS011;52639;51.180;20.460;2022-09-09T03:44:40;52.85;;;22.85;;
65863;SDS011;52639;51.180;20.460;2022-09-09T03:48:44;51.10;;;24.00;;
65863;SDS011;52639;51.180;20.460;2022-09-09T03:52:47;36.42;;;19.23;;
65863;SDS011;52639;51.180;20.460;2022-09-09T03:56:51;38.05;;;19.23;;
65863;SDS011;52639;51.180;20.460;2022-09-09T04:00:54;37.63;;;18.63;;
65863;SDS011;52639;51.180;20.460;2022-09-09T04:04:57;32.13;;;16.48;;
65863;SDS011;52639;51.180;20.460;2022-09-09T04:09:00;32.15;;;15.88;;
65863;SDS011;52639;51.180;20.460;2022-09-09T04:13:05;29.17;;;15.38;;
65863;SDS011;52639;51.180;20.460;2022-09-09T04:17:07;28.33;;;15.15;;
65863;SDS011;52639;51.180;20.460;2022-09-09T04:21:11;29.90;;;15.70;;
65863;SDS011;52639;51.180;20.460;2022-09-09T04:25:15;31.33;;;15.75;;
65863;SDS011;52639;51.180;20.460;2022-09-09T04:29:19;28.75;;;15.18;;
65863;SDS011;52639;51.180;20.460;2022-09-09T04:33:21;33.75;;;16.83;;
65863;SDS011;52639;51.180;20.460;2022-09-09T04:37:26;33.60;;;17.13;;
65863;SDS011;52639;51.180;20.460;2022-09-09T04:41:28;35.60;;;17.88;;
65863;SDS011;52639;51.180;20.460;2022-09-09T04:45:34;32.45;;;16.40;;
65863;SDS011;52639;51.180;20.460;2022-09-09T04:49:37;35.38;;;15.90;;
65863;SDS011;52639;51.180;20.460;2022-09-09T04:53:40;29.60;;;15.93;;
65863;SDS011;52639;51.180;20.460;2022-09-09T04:57:42;30.77;;;17.30;;
65863;SDS011;52639;51.180;20.460;2022-09-09T05:01:46;28.13;;;14.13;;
65863;SDS011;52639;51.180;20.460;2022-09-09T05:05:49;31.45;;;15.77;;
65863;SDS011;52639;51.180;20.460;2022-09-09T05:09:51;31.20;;;13.73;;
65863;SDS011;52639;51.180;20.460;2022-09-09T05:13:54;25.10;;;13.98;;
65863;SDS011;52639;51.180;20.460;2022-09-09T05:17:59;33.58;;;14.07;;
65863;SDS011;52639;51.180;20.460;2022-09-09T05:22:02;38.53;;;15.95;;
65863;SDS011;52639;51.180;20.460;2022-09-09T05:26:07;39.20;;;16.30;;
65863;SDS011;52639;51.180;20.460;2022-09-09T05:30:13;37.92;;;17.05;;
65863;SDS011;52639;51.180;20.460;2022-09-09T05:34:17;32.00;;;14.02;;
65863;SDS011;52639;51.180;20.460;2022-09-09T05:38:21;30.23;;;13.98;;
65863;SDS011;52639;51.180;20.460;2022-09-09T05:42:24;32.40;;;15.75;;
65863;SDS011;52639;51.180;20.460;2022-09-09T05:46:31;34.88;;;16.08;;
65863;SDS011;52639;51.180;20.460;2022-09-09T05:50:35;30.67;;;15.65;;
65863;SDS011;52639;51.180;20.460;2022-09-09T05:54:37;29.13;;;14.20;;
65863;SDS011;52639;51.180;20.460;2022-09-09T05:58:41;30.95;;;15.15;;
65863;SDS011;52639;51.180;20.460;2022-09-09T06:02:50;32.97;;;15.65;;
65863;SDS011;52639;51.180;20.460;2022-09-09T06:06:55;33.25;;;15.20;;
65863;SDS011;52639;51.180;20.460;2022-09-09T06:11:00;31.40;;;15.55;;
65863;SDS011;52639;51.180;20.460;2022-09-09T06:15:06;31.77;;;15.27;;
65863;SDS011;52639;51.180;20.460;2022-09-09T06:19:09;26.33;;;14.60;;
65863;SDS011;52639;51.180;20.460;2022-09-09T06:23:15;29.55;;;15.82;;
65863;SDS011;52639;51.180;20.460;2022-09-09T06:27:17;25.23;;;14.07;;
65863;SDS011;52639;51.180;20.460;2022-09-09T06:31:20;26.60;;;15.43;;
65863;SDS011;52639;51.180;20.460;2022-09-09T06:35:27;22.67;;;14.73;;
65863;SDS011;52639;51.180;20.460;2022-09-09T06:39:32;24.98;;;15.32;;
65863;SDS011;52639;51.180;20.460;2022-09-09T06:43:36;20.40;;;12.82;;
65863;SDS011;52639;51.180;20.460;2022-09-09T06:47:39;20.73;;;12.43;;
65863;SDS011;52639;51.180;20.460;2022-09-09T06:51:43;18.30;;;12.02;;
65863;SDS011;52639;51.180;20.460;2022-09-09T06:55:48;15.93;;;11.10;;
65863;SDS011;52639;51.180;20.460;2022-09-09T06:59:51;13.00;;;9.65;;
65863;SDS011;52639;51.180;20.460;2022-09-09T07:03:57;12.93;;;8.60;;
65863;SDS011;52639;51.180;20.460;2022-09-09T07:08:01;11.93;;;8.50;;
65863;SDS011;52639;51.180;20.460;2022-09-09T07:12:05;11.77;;;8.77;;
65863;SDS011;52639;51.180;20.460;2022-09-09T07:16:09;13.23;;;8.90;;
65863;SDS011;52639;51.180;20.460;2022-09-09T07:20:28;10.27;;;8.18;;
65863;SDS011;52639;51.180;20.460;2022-09-09T07:24:30;9.77;;;7.28;;
65863;SDS011;52639;51.180;20.460;2022-09-09T07:28:34;9.43;;;6.88;;
65863;SDS011;52639;51.180;20.460;2022-09-09T07:32:37;8.95;;;6.57;;
65863;SDS011;52639;51.180;20.460;2022-09-09T07:36:40;7.50;;;5.95;;
65863;SDS011;52639;51.180;20.460;2022-09-09T07:40:47;8.43;;;5.50;;
65863;SDS011;52639;51.180;20.460;2022-09-09T07:44:52;7.88;;;5.50;;
65863;SDS011;52639;51.180;20.460;2022-09-09T07:48:56;7.22;;;5.75;;
65863;SDS011;52639;51.180;20.460;2022-09-09T07:52:59;6.57;;;5.30;;
65863;SDS011;52639;51.180;20.460;2022-09-09T07:57:04;6.13;;;5.07;;
65863;SDS011;52639;51.180;20.460;2022-09-09T08:01:09;7.78;;;5.20;;
65863;SDS011;52639;51.180;20.460;2022-09-09T08:05:18;5.93;;;5.10;;
65863;SDS011;52639;51.180;20.460;2022-09-09T08:09:22;6.70;;;4.97;;
65863;SDS011;52639;51.180;20.460;2022-09-09T08:13:29;8.55;;;4.75;;
65863;SDS011;52639;51.180;20.460;2022-09-09T08:17:33;8.40;;;4.82;;
65863;SDS011;52639;51.180;20.460;2022-09-09T08:21:41;7.10;;;5.50;;
65863;SDS011;52639;51.180;20.460;2022-09-09T08:25:45;6.82;;;5.25;;
65863;SDS011;52639;51.180;20.460;2022-09-09T08:29:49;6.90;;;5.75;;
65863;SDS011;52639;51.180;20.460;2022-09-09T08:33:55;8.68;;;5.70;;
65863;SDS011;52639;51.180;20.460;2022-09-09T08:38:01;8.50;;;4.72;;
65863;SDS011;52639;51.180;20.460;2022-09-09T08:42:24;5.85;;;3.92;;
65863;SDS011;52639;51.180;20.460;2022-09-09T08:46:39;5.82;;;3.70;;
65863;SDS011;52639;51.180;20.460;2022-09-09T08:50:50;7.00;;;4.68;;
65863;SDS011;52639;51.180;20.460;2022-09-09T08:54:58;7.10;;;4.80;;
65863;SDS011;52639;51.180;20.460;2022-09-09T08:59:07;8.27;;;5.22;;
65863;SDS011;52639;51.180;20.460;2022-09-09T09:03:22;12.57;;;7.43;;
65863;SDS011;52639;51.180;20.460;2022-09-09T09:07:39;7.90;;;4.63;;
65863;SDS011;52639;51.180;20.460;2022-09-09T09:11:52;5.30;;;3.47;;
65863;SDS011;52639;51.180;20.460;2022-09-09T09:16:02;5.13;;;3.50;;
65863;SDS011;52639;51.180;20.460;2022-09-09T09:20:22;5.20;;;3.72;;
65863;SDS011;52639;51.180;20.460;2022-09-09T09:24:35;9.38;;;4.50;;
65863;SDS011;52639;51.180;20.460;2022-09-09T09:28:47;6.25;;;4.32;;
65863;SDS011;52639;51.180;20.460;2022-09-09T09:32:51;7.15;;;4.35;;
65863;SDS011;52639;51.180;20.460;2022-09-09T09:37:11;6.95;;;4.07;;
65863;SDS011;52639;51.180;20.460;2022-09-09T09:41:30;6.93;;;3.45;;
65863;SDS011;52639;51.180;20.460;2022-09-09T09:45:41;4.05;;;3.40;;
65863;SDS011;52639;51.180;20.460;2022-09-09T09:49:51;7.70;;;4.45;;
65863;SDS011;52639;51.180;20.460;2022-09-09T09:54:02;12.40;;;4.55;;
65863;SDS011;52639;51.180;20.460;2022-09-09T09:58:15;6.18;;;4.53;;
65863;SDS011;52639;51.180;20.460;2022-09-09T10:02:19;6.05;;;3.60;;
65863;SDS011;52639;51.180;20.460;2022-09-09T10:06:32;8.52;;;4.60;;
65863;SDS011;52639;51.180;20.460;2022-09-09T10:10:44;5.30;;;3.45;;
65863;SDS011;52639;51.180;20.460;2022-09-09T10:14:59;5.72;;;2.70;;
65863;SDS011;52639;51.180;20.460;2022-09-09T10:19:09;5.18;;;2.88;;
65863;SDS011;52639;51.180;20.460;2022-09-09T10:23:20;3.85;;;2.72;;
65863;SDS011;52639;51.180;20.460;2022-09-09T10:27:31;4.55;;;3.10;;
65863;SDS011;52639;51.180;20.460;2022-09-09T10:31:44;4.38;;;3.10;;
65863;SDS011;52639;51.180;20.460;2022-09-09T10:36:02;5.07;;;3.28;;
65863;SDS011;52639;51.180;20.460;2022-09-09T10:40:18;5.88;;;3.00;;
65863;SDS011;52639;51.180;20.460;2022-09-09T10:44:30;6.38;;;3.03;;
65863;SDS011;52639;51.180;20.460;2022-09-09T10:49:01;5.10;;;3.22;;
65863;SDS011;52639;51.180;20.460;2022-09-09T10:53:25;3.65;;;2.70;;
65863;SDS011;52639;51.180;20.460;2022-09-09T10:57:37;5.22;;;3.00;;
65863;SDS011;52639;51.180;20.460;2022-09-09T11:01:45;5.30;;;2.72;;
65863;SDS011;52639;51.180;20.460;2022-09-09T11:05:57;3.97;;;2.67;;
65863;SDS011;52639;51.180;20.460;2022-09-09T11:10:04;39.53;;;7.15;;
65863;SDS011;52639;51.180;20.460;2022-09-09T11:14:14;3.87;;;3.10;;
65863;SDS011;52639;51.180;20.460;2022-09-09T11:18:23;3.88;;;2.70;;
65863;SDS011;52639;51.180;20.460;2022-09-09T11:22:29;4.55;;;2.92;;
65863;SDS011;52639;51.180;20.460;2022-09-09T11:26:39;4.30;;;3.10;;
65863;SDS011;52639;51.180;20.460;2022-09-09T11:30:49;3.13;;;2.65;;
65863;SDS011;52639;51.180;20.460;2022-09-09T11:35:11;3.75;;;2.72;;
65863;SDS011;52639;51.180;20.460;2022-09-09T11:39:37;4.68;;;2.97;;
65863;SDS011;52639;51.180;20.460;2022-09-09T11:44:12;3.80;;;2.90;;
65863;SDS011;52639;51.180;20.460;2022-09-09T11:48:23;4.28;;;2.90;;
65863;SDS011;52639;51.180;20.460;2022-09-09T11:52:35;4.82;;;2.85;;
65863;SDS011;52639;51.180;20.460;2022-09-09T11:56:43;5.07;;;2.75;;
65863;SDS011;52639;51.180;20.460;2022-09-09T12:00:48;6.43;;;3.25;;
65863;SDS011;52639;51.180;20.460;2022-09-09T12:04:56;5.78;;;2.90;;
65863;SDS011;52639;51.180;20.460;2022-09-09T12:09:25;6.28;;;3.80;;
65863;SDS011;52639;51.180;20.460;2022-09-09T12:13:34;4.43;;;3.00;;
65863;SDS011;52639;51.180;20.460;2022-09-09T12:17:44;5.93;;;3.78;;
65863;SDS011;52639;51.180;20.460;2022-09-09T12:21:51;5.97;;;3.85;;
65863;SDS011;52639;51.180;20.460;2022-09-09T12:26:05;6.97;;;4.43;;
65863;SDS011;52639;51.180;20.460;2022-09-09T12:30:21;4.05;;;2.95;;
65863;SDS011;52639;51.180;20.460;2022-09-09T12:34:33;4.38;;;3.08;;
65863;SDS011;52639;51.180;20.460;2022-09-09T12:38:40;5.53;;;3.10;;
65863;SDS011;52639;51.180;20.460;2022-09-09T12:42:44;3.95;;;3.08;;
65863;SDS011;52639;51.180;20.460;2022-09-09T12:46:48;4.80;;;3.08;;
65863;SDS011;52639;51.180;20.460;2022-09-09T12:50:52;4.18;;;3.28;;
65863;SDS011;52639;51.180;20.460;2022-09-09T12:55:02;3.95;;;3.20;;
65863;SDS011;52639;51.180;20.460;2022-09-09T12:59:17;6.50;;;3.58;;
65863;SDS011;52639;51.180;20.460;2022-09-09T13:03:27;6.07;;;3.60;;
65863;SDS011;52639;51.180;20.460;2022-09-09T13:07:31;5.05;;;3.40;;
65863;SDS011;52639;51.180;20.460;2022-09-09T13:11:35;7.85;;;3.30;;
65863;SDS011;52639;51.180;20.460;2022-09-09T13:15:47;7.35;;;3.30;;
65863;SDS011;52639;51.180;20.460;2022-09-09T13:19:59;4.75;;;3.30;;
65863;SDS011;52639;51.180;20.460;2022-09-09T13:24:23;5.30;;;3.70;;
65863;SDS011;52639;51.180;20.460;2022-09-09T13:28:33;5.75;;;3.90;;
65863;SDS011;52639;51.180;20.460;2022-09-09T13:32:36;7.05;;;4.50;;
65863;SDS011;52639;51.180;20.460;2022-09-09T13:36:39;5.80;;;4.60;;
65863;SDS011;52639;51.180;20.460;2022-09-09T13:40:57;6.65;;;4.90;;
65863;SDS011;52639;51.180;20.460;2022-09-09T13:45:05;6.93;;;5.10;;
65863;SDS011;52639;51.180;20.460;2022-09-09T13:49:19;6.30;;;4.60;;
65863;SDS011;52639;51.180;20.460;2022-09-09T13:53:27;5.85;;;4.50;;
65863;SDS011;52639;51.180;20.460;2022-09-09T13:57:33;7.05;;;4.90;;
65863;SDS011;52639;51.180;20.460;2022-09-09T14:01:37;6.47;;;4.55;;
65863;SDS011;52639;51.180;20.460;2022-09-09T14:05:43;6.60;;;4.80;;
65863;SDS011;52639;51.180;20.460;2022-09-09T14:09:47;7.18;;;5.28;;
65863;SDS011;52639;51.180;20.460;2022-09-09T14:13:52;16.95;;;9.82;;
65863;SDS011;52639;51.180;20.460;2022-09-09T14:17:55;7.82;;;5.38;;
65863;SDS011;52639;51.180;20.460;2022-09-09T14:22:00;7.25;;;5.47;;
65863;SDS011;52639;51.180;20.460;2022-09-09T14:26:04;8.30;;;6.38;;
65863;SDS011;52639;51.180;20.460;2022-09-09T14:30:09;8.93;;;6.53;;
65863;SDS011;52639;51.180;20.460;2022-09-09T14:34:12;8.52;;;6.22;;
65863;SDS011;52639;51.180;20.460;2022-09-09T14:38:15;9.77;;;6.38;;
65863;SDS011;52639;51.180;20.460;2022-09-09T14:42:19;11.93;;;7.13;;
65863;SDS011;52639;51.180;20.460;2022-09-09T14:46:22;9.13;;;7.07;;
65863;SDS011;52639;51.180;20.460;2022-09-09T14:50:26;19.77;;;13.77;;
65863;SDS011;52639;51.180;20.460;2022-09-09T14:54:29;19.70;;;12.57;;
65863;SDS011;52639;51.180;20.460;2022-09-09T14:58:33;42.50;;;25.85;;
65863;SDS011;52639;51.180;20.460;2022-09-09T15:02:36;19.20;;;13.00;;
65863;SDS011;52639;51.180;20.460;2022-09-09T15:06:38;10.48;;;7.47;;
65863;SDS011;52639;51.180;20.460;2022-09-09T15:10:43;15.52;;;10.98;;
65863;SDS011;52639;51.180;20.460;2022-09-09T15:14:47;13.80;;;9.57;;
65863;SDS011;52639;51.180;20.460;2022-09-09T15:18:51;10.63;;;7.40;;
65863;SDS011;52639;51.180;20.460;2022-09-09T15:22:54;11.27;;;8.45;;
65863;SDS011;52639;51.180;20.460;2022-09-09T15:26:57;10.20;;;8.05;;
65863;SDS011;52639;51.180;20.460;2022-09-09T15:31:01;14.65;;;10.50;;
65863;SDS011;52639;51.180;20.460;2022-09-09T15:35:08;10.20;;;8.07;;
65863;SDS011;52639;51.180;20.460;2022-09-09T15:39:11;11.65;;;7.65;;
65863;SDS011;52639;51.180;20.460;2022-09-09T15:43:16;11.48;;;8.20;;
65863;SDS011;52639;51.180;20.460;2022-09-09T15:47:20;12.60;;;10.05;;
65863;SDS011;52639;51.180;20.460;2022-09-09T15:51:23;21.08;;;14.90;;
65863;SDS011;52639;51.180;20.460;2022-09-09T15:55:28;23.70;;;17.90;;
65863;SDS011;52639;51.180;20.460;2022-09-09T15:59:31;20.42;;;15.18;;
65863;SDS011;52639;51.180;20.460;2022-09-09T16:03:35;12.95;;;8.85;;
65863;SDS011;52639;51.180;20.460;2022-09-09T16:07:39;16.30;;;12.00;;
65863;SDS011;52639;51.180;20.460;2022-09-09T16:11:42;12.32;;;9.18;;
65863;SDS011;52639;51.180;20.460;2022-09-09T16:15:45;15.20;;;10.98;;
65863;SDS011;52639;51.180;20.460;2022-09-09T16:19:57;15.73;;;12.48;;
65863;SDS011;52639;51.180;20.460;2022-09-09T16:24:00;19.17;;;15.35;;
65863;SDS011;52639;51.180;20.460;2022-09-09T16:28:03;24.40;;;20.75;;
65863;SDS011;52639;51.180;20.460;2022-09-09T16:32:07;13.27;;;10.10;;
65863;SDS011;52639;51.180;20.460;2022-09-09T16:36:11;12.90;;;9.98;;
65863;SDS011;52639;51.180;20.460;2022-09-09T16:40:15;12.23;;;9.30;;
65863;SDS011;52639;51.180;20.460;2022-09-09T16:44:18;13.63;;;9.95;;
65863;SDS011;52639;51.180;20.460;2022-09-09T16:48:21;16.15;;;10.73;;
65863;SDS011;52639;51.180;20.460;2022-09-09T16:52:25;22.00;;;15.45;;
65863;SDS011;52639;51.180;20.460;2022-09-09T16:56:28;15.45;;;11.20;;
65863;SDS011;52639;51.180;20.460;2022-09-09T17:00:32;13.48;;;9.82;;
65863;SDS011;52639;51.180;20.460;2022-09-09T17:04:35;14.32;;;10.48;;
65863;SDS011;52639;51.180;20.460;2022-09-09T17:08:41;17.98;;;12.27;;
65863;SDS011;52639;51.180;20.460;2022-09-09T17:12:44;17.88;;;12.13;;
65863;SDS011;52639;51.180;20.460;2022-09-09T17:16:46;23.42;;;15.18;;
65863;SDS011;52639;51.180;20.460;2022-09-09T17:20:49;21.88;;;14.85;;
65863;SDS011;52639;51.180;20.460;2022-09-09T17:24:52;15.57;;;10.85;;
65863;SDS011;52639;51.180;20.460;2022-09-09T17:28:55;16.92;;;11.18;;
65863;SDS011;52639;51.180;20.460;2022-09-09T17:32:59;20.33;;;13.20;;
65863;SDS011;52639;51.180;20.460;2022-09-09T17:37:02;22.27;;;14.95;;
65863;SDS011;52639;51.180;20.460;2022-09-09T17:41:08;21.00;;;13.07;;
65863;SDS011;52639;51.180;20.460;2022-09-09T17:45:12;17.75;;;12.77;;
65863;SDS011;52639;51.180;20.460;2022-09-09T17:49:16;22.10;;;13.70;;
65863;SDS011;52639;51.180;20.460;2022-09-09T17:53:20;18.88;;;12.32;;
65863;SDS011;52639;51.180;20.460;2022-09-09T17:57:24;19.15;;;11.93;;
65863;SDS011;52639;51.180;20.460;2022-09-09T18:01:27;20.27;;;12.85;;
65863;SDS011;52639;51.180;20.460;2022-09-09T18:05:34;20.95;;;13.15;;
65863;SDS011;52639;51.180;20.460;2022-09-09T18:09:38;17.75;;;11.98;;
65863;SDS011;52639;51.180;20.460;2022-09-09T18:13:49;22.77;;;13.57;;
65863;SDS011;52639;51.180;20.460;2022-09-09T18:17:52;20.55;;;13.60;;
65863;SDS011;52639;51.180;20.460;2022-09-09T18:21:55;19.27;;;12.70;;
65863;SDS011;52639;51.180;20.460;2022-09-09T18:25:58;17.63;;;11.98;;
65863;SDS011;52639;51.180;20.460;2022-09-09T18:30:02;22.30;;;13.57;;
65863;SDS011;52639;51.180;20.460;2022-09-09T18:34:06;22.20;;;13.18;;
65863;SDS011;52639;51.180;20.460;2022-09-09T18:38:10;26.02;;;15.68;;
65863;SDS011;52639;51.180;20.460;2022-09-09T18:42:12;34.75;;;18.63;;
65863;SDS011;52639;51.180;20.460;2022-09-09T18:46:16;35.47;;;18.85;;
65863;SDS011;52639;51.180;20.460;2022-09-09T18:50:20;25.65;;;15.38;;
65863;SDS011;52639;51.180;20.460;2022-09-09T18:54:24;24.92;;;14.60;;
65863;SDS011;52639;51.180;20.460;2022-09-09T18:58:29;27.58;;;15.90;;
65863;SDS011;52639;51.180;20.460;2022-09-09T19:02:35;29.08;;;16.08;;
65863;SDS011;52639;51.180;20.460;2022-09-09T19:06:40;25.13;;;14.43;;
65863;SDS011;52639;51.180;20.460;2022-09-09T19:10:46;23.67;;;14.25;;
65863;SDS011;52639;51.180;20.460;2022-09-09T19:14:50;21.13;;;13.98;;
65863;SDS011;52639;51.180;20.460;2022-09-09T19:18:54;34.17;;;18.85;;
65863;SDS011;52639;51.180;20.460;2022-09-09T19:23:00;34.40;;;19.58;;
65863;SDS011;52639;51.180;20.460;2022-09-09T19:27:04;25.38;;;15.80;;
65863;SDS011;52639;51.180;20.460;2022-09-09T19:31:09;35.75;;;18.77;;
65863;SDS011;52639;51.180;20.460;2022-09-09T19:35:17;32.45;;;17.77;;
65863;SDS011;52639;51.180;20.460;2022-09-09T19:39:20;32.17;;;17.25;;
65863;SDS011;52639;51.180;20.460;2022-09-09T19:43:23;32.42;;;17.58;;
65863;SDS011;52639;51.180;20.460;2022-09-09T19:47:29;29.05;;;15.65;;
65863;SDS011;52639;51.180;20.460;2022-09-09T19:51:33;26.92;;;15.57;;
65863;SDS011;52639;51.180;20.460;2022-09-09T19:55:37;37.90;;;17.75;;
65863;SDS011;52639;51.180;20.460;2022-09-09T19:59:40;31.75;;;17.85;;
65863;SDS011;52639;51.180;20.460;2022-09-09T20:03:45;31.08;;;19.13;;
65863;SDS011;52639;51.180;20.460;2022-09-09T20:07:51;34.45;;;18.45;;
65863;SDS011;52639;51.180;20.460;2022-09-09T20:11:54;35.38;;;17.58;;
65863;SDS011;52639;51.180;20.460;2022-09-09T20:15:57;25.95;;;14.60;;
65863;SDS011;52639;51.180;20.460;2022-09-09T20:20:01;36.20;;;18.92;;
65863;SDS011;52639;51.180;20.460;2022-09-09T20:24:07;32.13;;;18.65;;
65863;SDS011;52639;51.180;20.460;2022-09-09T20:28:13;39.30;;;20.70;;
65863;SDS011;52639;51.180;20.460;2022-09-09T20:32:16;37.42;;;18.70;;
65863;SDS011;52639;51.180;20.460;2022-09-09T20:36:19;35.30;;;17.63;;
65863;SDS011;52639;51.180;20.460;2022-09-09T20:40:26;36.30;;;19.35;;
65863;SDS011;52639;51.180;20.460;2022-09-09T20:44:30;37.53;;;17.83;;
65863;SDS011;52639;51.180;20.460;2022-09-09T20:48:33;33.53;;;18.33;;
65863;SDS011;52639;51.180;20.460;2022-09-09T20:52:35;30.73;;;15.10;;
65863;SDS011;52639;51.180;20.460;2022-09-09T20:56:40;34.92;;;17.92;;
65863;SDS011;52639;51.180;20.460;2022-09-09T21:00:44;35.25;;;17.85;;
65863;SDS011;52639;51.180;20.460;2022-09-09T21:04:48;37.60;;;19.40;;
65863;SDS011;52639;51.180;20.460;2022-09-09T21:08:51;38.33;;;19.92;;
65863;SDS011;52639;51.180;20.460;2022-09-09T21:12:55;47.53;;;22.30;;
65863;SDS011;52639;51.180;20.460;2022-09-09T21:16:58;39.67;;;19.92;;
65863;SDS011;52639;51.180;20.460;2022-09-09T21:21:00;40.25;;;18.70;;
65863;SDS011;52639;51.180;20.460;2022-09-09T21:25:04;33.15;;;16.33;;
65863;SDS011;52639;51.180;20.460;2022-09-09T21:29:08;40.35;;;20.65;;
65863;SDS011;52639;51.180;20.460;2022-09-09T21:33:12;49.85;;;22.45;;
65863;SDS011;52639;51.180;20.460;2022-09-09T21:37:15;47.35;;;21.58;;
65863;SDS011;52639;51.180;20.460;2022-09-09T21:41:18;36.80;;;18.05;;
65863;SDS011;52639;51.180;20.460;2022-09-09T21:45:22;43.65;;;22.58;;
65863;SDS011;52639;51.180;20.460;2022-09-09T21:49:25;51.85;;;22.70;;
65863;SDS011;52639;51.180;20.460;2022-09-09T21:53:28;48.72;;;22.90;;
65863;SDS011;52639;51.180;20.460;2022-09-09T21:57:31;44.90;;;22.73;;
65863;SDS011;52639;51.180;20.460;2022-09-09T22:01:36;41.30;;;20.55;;
65863;SDS011;52639;51.180;20.460;2022-09-09T22:05:40;40.90;;;19.80;;
65863;SDS011;52639;51.180;20.460;2022-09-09T22:09:44;44.47;;;20.58;;
65863;SDS011;52639;51.180;20.460;2022-09-09T22:13:46;44.53;;;20.83;;
65863;SDS011;52639;51.180;20.460;2022-09-09T22:17:51;44.03;;;20.42;;
65863;SDS011;52639;51.180;20.460;2022-09-09T22:21:53;45.35;;;21.85;;
65863;SDS011;52639;51.180;20.460;2022-09-09T22:25:56;37.83;;;18.70;;
65863;SDS011;52639;51.180;20.460;2022-09-09T22:29:58;47.15;;;22.27;;
65863;SDS011;52639;51.180;20.460;2022-09-09T22:34:02;45.80;;;21.10;;
65863;SDS011;52639;51.180;20.460;2022-09-09T22:38:05;33.13;;;15.10;;
65863;SDS011;52639;51.180;20.460;2022-09-09T22:42:08;40.88;;;19.67;;
65863;SDS011;52639;51.180;20.460;2022-09-09T22:46:10;38.58;;;17.73;;
65863;SDS011;52639;51.180;20.460;2022-09-09T22:50:14;40.53;;;20.98;;
65863;SDS011;52639;51.180;20.460;2022-09-09T22:54:17;40.70;;;19.85;;
65863;SDS011;52639;51.180;20.460;2022-09-09T22:58:21;35.38;;;16.25;;
65863;SDS011;52639;51.180;20.460;2022-09-09T23:02:23;37.42;;;19.35;;
65863;SDS011;52639;51.180;20.460;2022-09-09T23:06:28;37.17;;;18.75;;
65863;SDS011;52639;51.180;20.460;2022-09-09T23:10:31;37.95;;;18.90;;
65863;SDS011;52639;51.180;20.460;2022-09-09T23:14:33;38.42;;;19.60;;
65863;SDS011;52639;51.180;20.460;2022-09-09T23:18:36;36.20;;;20.17;;
65863;SDS011;52639;51.180;20.460;2022-09-09T23:22:41;40.20;;;20.08;;
65863;SDS011;52639;51.180;20.460;2022-09-09T23:26:43;41.10;;;21.00;;
65863;SDS011;52639;51.180;20.460;2022-09-09T23:30:46;39.63;;;20.52;;
65863;SDS011;52639;51.180;20.460;2022-09-09T23:34:50;35.13;;;18.50;;
65863;SDS011;52639;51.180;20.460;2022-09-09T23:38:54;37.30;;;18.23;;
65863;SDS011;52639;51.180;20.460;2022-09-09T23:42:57;31.00;;;15.65;;
65863;SDS011;52639;51.180;20.460;2022-09-09T23:47:00;40.42;;;18.02;;
65863;SDS011;52639;51.180;20.460;2022-09-09T23:51:05;36.55;;;17.90;;